sensor_id;sensor_type;location;lat;lon;timestamp;temperature;humidity
27759;DHT22;15148;48.972;12.794;2023-09-08T00:02:07;14.90;99.90
27759;DHT22;15148;48.972;12.794;2023-09-08T00:07:09;14.70;99.90
27759;DHT22;15148;48.972;12.794;2023-09-08T00:12:11;14.60;99.90
27759;DHT22;15148;48.972;12.794;2023-09-08T00:17:12;14.60;99.90
27759;DHT22;15148;48.972;12.794;2023-09-08T00:22:14;14.50;99.90
27759;DHT22;15148;48.972;12.794;2023-09-08T00:27:16;14.60;99.90
27759;DHT22;15148;48.972;12.794;2023-09-08T00:32:18;14.50;99.90
27759;DHT22;15148;48.972;12.794;2023-09-08T00:37:20;14.40;99.90
27759;DHT22;15148;48.972;12.794;2023-09-08T00:42:22;14.40;99.90
27759;DHT22;15148;48.972;12.794;2023-09-08T00:47:24;14.40;99.90
27759;DHT22;15148;48.972;12.794;2023-09-08T00:52:26;14.30;99.90
27759;DHT22;15148;48.972;12.794;2023-09-08T00:57:32;14.30;99.90
27759;DHT22;15148;48.972;12.794;2023-09-08T01:02:34;14.30;99.90
27759;DHT22;15148;48.972;12.794;2023-09-08T01:07:37;14.30;99.90
27759;DHT22;15148;48.972;12.794;2023-09-08T01:12:40;14.20;99.90
27759;DHT22;15148;48.972;12.794;2023-09-08T01:17:41;14.10;99.90
27759;DHT22;15148;48.972;12.794;2023-09-08T01:28:07;14.00;99.90
27759;DHT22;15148;48.972;12.794;2023-09-08T01:33:10;14.00;99.90
27759;DHT22;15148;48.972;12.794;2023-09-08T01:38:12;13.90;99.90
27759;DHT22;15148;48.972;12.794;2023-09-08T01:43:14;13.90;99.90
27759;DHT22;15148;48.972;12.794;2023-09-08T01:48:16;13.90;99.90
27759;DHT22;15148;48.972;12.794;2023-09-08T01:53:18;13.70;99.90
27759;DHT22;15148;48.972;12.794;2023-09-08T01:58:19;13.70;99.90
27759;DHT22;15148;48.972;12.794;2023-09-08T02:03:21;13.70;99.90
27759;DHT22;15148;48.972;12.794;2023-09-08T02:08:23;13.70;99.90
27759;DHT22;15148;48.972;12.794;2023-09-08T02:13:25;13.60;99.90
27759;DHT22;15148;48.972;12.794;2023-09-08T02:18:27;13.60;99.90
27759;DHT22;15148;48.972;12.794;2023-09-08T02:23:30;13.60;99.90
27759;DHT22;15148;48.972;12.794;2023-09-08T02:28:31;13.50;99.90
27759;DHT22;15148;48.972;12.794;2023-09-08T02:33:34;13.40;99.90
27759;DHT22;15148;48.972;12.794;2023-09-08T02:38:36;13.40;99.90
27759;DHT22;15148;48.972;12.794;2023-09-08T02:43:39;13.30;99.90
27759;DHT22;15148;48.972;12.794;2023-09-08T02:48:41;13.30;99.90
27759;DHT22;15148;48.972;12.794;2023-09-08T02:53:43;13.30;99.90
27759;DHT22;15148;48.972;12.794;2023-09-08T02:58:45;13.40;99.90
27759;DHT22;15148;48.972;12.794;2023-09-08T03:03:47;13.30;99.90
27759;DHT22;15148;48.972;12.794;2023-09-08T03:08:51;13.30;99.90
27759;DHT22;15148;48.972;12.794;2023-09-08T03:13:53;13.30;99.90
27759;DHT22;15148;48.972;12.794;2023-09-08T03:18:55;13.20;99.90
27759;DHT22;15148;48.972;12.794;2023-09-08T03:23:58;13.20;99.90
27759;DHT22;15148;48.972;12.794;2023-09-08T03:29:00;13.10;99.90
27759;DHT22;15148;48.972;12.794;2023-09-08T03:34:02;13.00;99.90
27759;DHT22;15148;48.972;12.794;2023-09-08T03:39:04;13.10;99.90
27759;DHT22;15148;48.972;12.794;2023-09-08T03:44:06;13.10;99.90
27759;DHT22;15148;48.972;12.794;2023-09-08T03:49:07;13.10;99.90
27759;DHT22;15148;48.972;12.794;2023-09-08T03:54:09;13.00;99.90
27759;DHT22;15148;48.972;12.794;2023-09-08T03:59:11;12.90;99.90
27759;DHT22;15148;48.972;12.794;2023-09-08T04:04:13;12.90;99.90
27759;DHT22;15148;48.972;12.794;2023-09-08T04:09:15;12.80;99.90
27759;DHT22;15148;48.972;12.794;2023-09-08T04:14:17;12.70;99.90
27759;DHT22;15148;48.972;12.794;2023-09-08T04:19:19;12.70;99.90
27759;DHT22;15148;48.972;12.794;2023-09-08T04:24:20;12.60;99.90
27759;DHT22;15148;48.972;12.794;2023-09-08T04:29:22;12.50;99.90
27759;DHT22;15148;48.972;12.794;2023-09-08T04:34:24;12.50;99.90
27759;DHT22;15148;48.972;12.794;2023-09-08T04:39:26;12.50;99.90
27759;DHT22;15148;48.972;12.794;2023-09-08T04:44:28;12.30;99.90
27759;DHT22;15148;48.972;12.794;2023-09-08T04:49:30;12.30;99.90
27759;DHT22;15148;48.972;12.794;2023-09-08T04:54:32;12.40;99.90
27759;DHT22;15148;48.972;12.794;2023-09-08T04:59:34;12.40;99.90
27759;DHT22;15148;48.972;12.794;2023-09-08T05:04:39;12.40;99.90
27759;DHT22;15148;48.972;12.794;2023-09-08T05:09:41;12.40;99.90
27759;DHT22;15148;48.972;12.794;2023-09-08T05:14:44;12.30;99.90
27759;DHT22;15148;48.972;12.794;2023-09-08T05:19:46;12.40;99.90
27759;DHT22;15148;48.972;12.794;2023-09-08T05:24:48;12.40;99.90
27759;DHT22;15148;48.972;12.794;2023-09-08T05:29:50;12.40;99.90
27759;DHT22;15148;48.972;12.794;2023-09-08T05:34:52;12.50;99.90
27759;DHT22;15148;48.972;12.794;2023-09-08T05:39:54;12.50;99.90
27759;DHT22;15148;48.972;12.794;2023-09-08T05:44:55;12.60;99.90
27759;DHT22;15148;48.972;12.794;2023-09-08T05:49:57;12.80;99.90
27759;DHT22;15148;48.972;12.794;2023-09-08T05:54:59;12.90;99.90
27759;DHT22;15148;48.972;12.794;2023-09-08T06:00:07;13.10;99.90
27759;DHT22;15148;48.972;12.794;2023-09-08T06:05:13;13.20;99.90
27759;DHT22;15148;48.972;12.794;2023-09-08T06:10:15;13.40;99.90
27759;DHT22;15148;48.972;12.794;2023-09-08T06:15:17;13.60;99.90
27759;DHT22;15148;48.972;12.794;2023-09-08T06:20:19;13.80;99.90
27759;DHT22;15148;48.972;12.794;2023-09-08T06:25:22;14.00;99.90
27759;DHT22;15148;48.972;12.794;2023-09-08T06:30:24;14.20;99.90
27759;DHT22;15148;48.972;12.794;2023-09-08T06:35:26;14.60;99.90
27759;DHT22;15148;48.972;12.794;2023-09-08T06:40:32;15.00;99.90
27759;DHT22;15148;48.972;12.794;2023-09-08T06:45:37;15.30;99.90
27759;DHT22;15148;48.972;12.794;2023-09-08T06:50:39;15.60;99.90
27759;DHT22;15148;48.972;12.794;2023-09-08T06:55:41;16.00;99.90
27759;DHT22;15148;48.972;12.794;2023-09-08T07:00:46;16.30;99.90
27759;DHT22;15148;48.972;12.794;2023-09-08T07:05:50;16.80;99.90
27759;DHT22;15148;48.972;12.794;2023-09-08T07:10:52;17.10;99.90
27759;DHT22;15148;48.972;12.794;2023-09-08T07:15:55;17.50;99.90
27759;DHT22;15148;48.972;12.794;2023-09-08T07:20:58;18.00;99.90
27759;DHT22;15148;48.972;12.794;2023-09-08T07:26:00;18.30;99.90
27759;DHT22;15148;48.972;12.794;2023-09-08T07:31:05;18.70;99.90
27759;DHT22;15148;48.972;12.794;2023-09-08T07:36:11;19.10;99.90
27759;DHT22;15148;48.972;12.794;2023-09-08T07:41:14;19.40;99.90
27759;DHT22;15148;48.972;12.794;2023-09-08T07:46:17;19.70;99.90
27759;DHT22;15148;48.972;12.794;2023-09-08T07:51:18;20.00;99.90
27759;DHT22;15148;48.972;12.794;2023-09-08T07:56:20;20.40;99.90
27759;DHT22;15148;48.972;12.794;2023-09-08T08:01:22;20.70;99.90
27759;DHT22;15148;48.972;12.794;2023-09-08T08:06:24;20.90;99.90
27759;DHT22;15148;48.972;12.794;2023-09-08T08:11:26;21.30;99.90
27759;DHT22;15148;48.972;12.794;2023-09-08T08:16:28;21.50;99.90
27759;DHT22;15148;48.972;12.794;2023-09-08T08:21:30;21.80;99.90
27759;DHT22;15148;48.972;12.794;2023-09-08T08:26:32;22.20;99.90
27759;DHT22;15148;48.972;12.794;2023-09-08T08:31:34;22.40;99.90
27759;DHT22;15148;48.972;12.794;2023-09-08T08:36:36;22.60;99.90
27759;DHT22;15148;48.972;12.794;2023-09-08T08:41:40;22.70;99.90
27759;DHT22;15148;48.972;12.794;2023-09-08T08:46:42;22.90;99.90
27759;DHT22;15148;48.972;12.794;2023-09-08T08:51:45;23.20;99.90
27759;DHT22;15148;48.972;12.794;2023-09-08T08:56:50;23.40;99.90
27759;DHT22;15148;48.972;12.794;2023-09-08T09:01:52;23.60;99.90
27759;DHT22;15148;48.972;12.794;2023-09-08T09:06:53;23.70;99.90
27759;DHT22;15148;48.972;12.794;2023-09-08T09:11:56;23.90;99.90
27759;DHT22;15148;48.972;12.794;2023-09-08T09:16:57;23.80;99.90
27759;DHT22;15148;48.972;12.794;2023-09-08T09:21:59;24.10;99.90
27759;DHT22;15148;48.972;12.794;2023-09-08T09:27:02;24.30;99.90
27759;DHT22;15148;48.972;12.794;2023-09-08T09:32:07;24.40;99.90
27759;DHT22;15148;48.972;12.794;2023-09-08T09:37:12;24.40;99.90
27759;DHT22;15148;48.972;12.794;2023-09-08T09:42:14;24.50;99.90
27759;DHT22;15148;48.972;12.794;2023-09-08T09:47:18;24.60;99.90
27759;DHT22;15148;48.972;12.794;2023-09-08T09:52:22;24.70;99.90
27759;DHT22;15148;48.972;12.794;2023-09-08T09:57:33;24.70;99.90
27759;DHT22;15148;48.972;12.794;2023-09-08T10:02:35;24.80;99.90
27759;DHT22;15148;48.972;12.794;2023-09-08T10:07:37;24.80;99.90
27759;DHT22;15148;48.972;12.794;2023-09-08T10:12:43;24.80;99.90
27759;DHT22;15148;48.972;12.794;2023-09-08T10:17:51;24.80;99.90
27759;DHT22;15148;48.972;12.794;2023-09-08T10:23:06;24.80;99.90
27759;DHT22;15148;48.972;12.794;2023-09-08T10:28:09;24.90;99.90
27759;DHT22;15148;48.972;12.794;2023-09-08T10:33:11;24.90;99.90
27759;DHT22;15148;48.972;12.794;2023-09-08T10:38:27;24.90;99.90
27759;DHT22;15148;48.972;12.794;2023-09-08T10:43:29;25.00;99.90
27759;DHT22;15148;48.972;12.794;2023-09-08T10:48:41;25.00;99.90
27759;DHT22;15148;48.972;12.794;2023-09-08T10:53:47;25.20;99.90
27759;DHT22;15148;48.972;12.794;2023-09-08T10:58:51;25.30;99.90
27759;DHT22;15148;48.972;12.794;2023-09-08T11:03:54;25.30;99.90
27759;DHT22;15148;48.972;12.794;2023-09-08T11:09:06;25.30;99.90
27759;DHT22;15148;48.972;12.794;2023-09-08T11:14:08;25.40;99.90
27759;DHT22;15148;48.972;12.794;2023-09-08T11:19:10;25.40;99.90
27759;DHT22;15148;48.972;12.794;2023-09-08T11:24:12;25.50;99.90
27759;DHT22;15148;48.972;12.794;2023-09-08T11:29:16;25.60;99.90
27759;DHT22;15148;48.972;12.794;2023-09-08T11:34:18;25.80;99.90
27759;DHT22;15148;48.972;12.794;2023-09-08T11:39:25;25.90;99.90
27759;DHT22;15148;48.972;12.794;2023-09-08T11:44:29;26.00;99.90
27759;DHT22;15148;48.972;12.794;2023-09-08T11:49:39;26.00;99.90
27759;DHT22;15148;48.972;12.794;2023-09-08T11:54:41;26.10;99.90
27759;DHT22;15148;48.972;12.794;2023-09-08T12:00:01;26.30;99.90
27759;DHT22;15148;48.972;12.794;2023-09-08T12:05:05;26.40;99.90
27759;DHT22;15148;48.972;12.794;2023-09-08T12:10:09;26.50;99.90
27759;DHT22;15148;48.972;12.794;2023-09-08T12:15:12;26.60;99.90
27759;DHT22;15148;48.972;12.794;2023-09-08T12:20:31;26.60;99.90
27759;DHT22;15148;48.972;12.794;2023-09-08T12:25:33;26.70;99.90
27759;DHT22;15148;48.972;12.794;2023-09-08T12:30:39;26.70;99.90
27759;DHT22;15148;48.972;12.794;2023-09-08T12:35:46;26.80;99.90
27759;DHT22;15148;48.972;12.794;2023-09-08T12:40:48;26.90;99.90
27759;DHT22;15148;48.972;12.794;2023-09-08T12:45:50;26.90;99.90
27759;DHT22;15148;48.972;12.794;2023-09-08T12:50:52;27.00;99.90
27759;DHT22;15148;48.972;12.794;2023-09-08T12:55:54;27.00;99.90
27759;DHT22;15148;48.972;12.794;2023-09-08T13:00:56;26.90;99.90
27759;DHT22;15148;48.972;12.794;2023-09-08T13:05:58;26.90;99.90
27759;DHT22;15148;48.972;12.794;2023-09-08T13:11:01;26.90;99.90
27759;DHT22;15148;48.972;12.794;2023-09-08T13:16:04;27.00;99.90
27759;DHT22;15148;48.972;12.794;2023-09-08T13:21:07;26.90;99.90
27759;DHT22;15148;48.972;12.794;2023-09-08T13:26:08;26.80;99.90
27759;DHT22;15148;48.972;12.794;2023-09-08T13:31:10;26.70;99.90
27759;DHT22;15148;48.972;12.794;2023-09-08T13:36:12;26.80;99.90
27759;DHT22;15148;48.972;12.794;2023-09-08T13:41:14;26.90;99.90
27759;DHT22;15148;48.972;12.794;2023-09-08T13:46:17;26.90;99.90
27759;DHT22;15148;48.972;12.794;2023-09-08T13:51:19;26.90;99.90
27759;DHT22;15148;48.972;12.794;2023-09-08T13:56:22;26.60;99.90
27759;DHT22;15148;48.972;12.794;2023-09-08T14:01:27;26.50;99.90
27759;DHT22;15148;48.972;12.794;2023-09-08T14:06:33;26.20;99.90
27759;DHT22;15148;48.972;12.794;2023-09-08T14:11:38;25.80;99.90
27759;DHT22;15148;48.972;12.794;2023-09-08T14:17:00;25.60;99.90
27759;DHT22;15148;48.972;12.794;2023-09-08T14:22:02;25.30;99.90
27759;DHT22;15148;48.972;12.794;2023-09-08T14:27:04;25.00;99.90
27759;DHT22;15148;48.972;12.794;2023-09-08T14:32:06;24.80;99.90
27759;DHT22;15148;48.972;12.794;2023-09-08T14:37:08;24.60;99.90
27759;DHT22;15148;48.972;12.794;2023-09-08T14:42:12;24.40;99.90
27759;DHT22;15148;48.972;12.794;2023-09-08T14:47:15;24.30;99.90
27759;DHT22;15148;48.972;12.794;2023-09-08T14:52:17;24.10;99.90
27759;DHT22;15148;48.972;12.794;2023-09-08T14:57:22;23.90;99.90
27759;DHT22;15148;48.972;12.794;2023-09-08T15:02:25;23.70;99.90
27759;DHT22;15148;48.972;12.794;2023-09-08T15:07:27;23.60;99.90
27759;DHT22;15148;48.972;12.794;2023-09-08T15:12:29;23.40;99.90
27759;DHT22;15148;48.972;12.794;2023-09-08T15:17:30;23.30;99.90
27759;DHT22;15148;48.972;12.794;2023-09-08T15:22:32;23.20;99.90
27759;DHT22;15148;48.972;12.794;2023-09-08T15:27:34;23.10;99.90
27759;DHT22;15148;48.972;12.794;2023-09-08T15:32:36;23.00;99.90
27759;DHT22;15148;48.972;12.794;2023-09-08T15:37:40;22.80;99.90
27759;DHT22;15148;48.972;12.794;2023-09-08T15:42:42;22.70;99.90
27759;DHT22;15148;48.972;12.794;2023-09-08T15:47:45;22.60;99.90
27759;DHT22;15148;48.972;12.794;2023-09-08T15:52:47;22.50;99.90
27759;DHT22;15148;48.972;12.794;2023-09-08T15:57:49;22.50;99.90
27759;DHT22;15148;48.972;12.794;2023-09-08T16:02:51;22.30;99.90
27759;DHT22;15148;48.972;12.794;2023-09-08T16:07:53;22.20;99.90
27759;DHT22;15148;48.972;12.794;2023-09-08T16:12:54;22.20;99.90
27759;DHT22;15148;48.972;12.794;2023-09-08T16:17:59;22.00;99.90
27759;DHT22;15148;48.972;12.794;2023-09-08T16:23:01;21.80;99.90
27759;DHT22;15148;48.972;12.794;2023-09-08T16:28:05;21.70;99.90
27759;DHT22;15148;48.972;12.794;2023-09-08T16:33:07;21.50;99.90
27759;DHT22;15148;48.972;12.794;2023-09-08T16:38:10;21.50;99.90
27759;DHT22;15148;48.972;12.794;2023-09-08T16:43:17;21.20;99.90
27759;DHT22;15148;48.972;12.794;2023-09-08T16:48:19;21.00;99.90
27759;DHT22;15148;48.972;12.794;2023-09-08T16:53:22;20.90;99.90
27759;DHT22;15148;48.972;12.794;2023-09-08T16:58:24;20.70;99.90
27759;DHT22;15148;48.972;12.794;2023-09-08T17:03:26;20.60;99.90
27759;DHT22;15148;48.972;12.794;2023-09-08T17:08:28;20.40;99.90
27759;DHT22;15148;48.972;12.794;2023-09-08T17:13:30;20.20;99.90
27759;DHT22;15148;48.972;12.794;2023-09-08T17:18:32;20.00;99.90
27759;DHT22;15148;48.972;12.794;2023-09-08T17:23:35;19.90;99.90
27759;DHT22;15148;48.972;12.794;2023-09-08T17:28:37;19.70;99.90
27759;DHT22;15148;48.972;12.794;2023-09-08T17:33:39;19.60;99.90
27759;DHT22;15148;48.972;12.794;2023-09-08T17:38:41;19.50;99.90
27759;DHT22;15148;48.972;12.794;2023-09-08T17:43:43;19.40;99.90
27759;DHT22;15148;48.972;12.794;2023-09-08T17:48:47;19.40;99.90
27759;DHT22;15148;48.972;12.794;2023-09-08T17:53:49;19.40;99.90
27759;DHT22;15148;48.972;12.794;2023-09-08T17:58:50;19.30;99.90
27759;DHT22;15148;48.972;12.794;2023-09-08T18:03:52;19.20;99.90
27759;DHT22;15148;48.972;12.794;2023-09-08T18:08:54;19.00;99.90
27759;DHT22;15148;48.972;12.794;2023-09-08T18:13:56;18.90;99.90
27759;DHT22;15148;48.972;12.794;2023-09-08T18:19:01;18.70;99.90
27759;DHT22;15148;48.972;12.794;2023-09-08T18:24:03;18.60;99.90
27759;DHT22;15148;48.972;12.794;2023-09-08T18:29:05;18.30;99.90
27759;DHT22;15148;48.972;12.794;2023-09-08T18:34:07;18.20;99.90
27759;DHT22;15148;48.972;12.794;2023-09-08T18:39:10;18.20;99.90
27759;DHT22;15148;48.972;12.794;2023-09-08T18:44:12;18.10;99.90
27759;DHT22;15148;48.972;12.794;2023-09-08T18:49:14;18.00;99.90
27759;DHT22;15148;48.972;12.794;2023-09-08T18:54:15;18.00;99.90
27759;DHT22;15148;48.972;12.794;2023-09-08T18:59:17;18.00;99.90
27759;DHT22;15148;48.972;12.794;2023-09-08T19:04:19;17.90;99.90
27759;DHT22;15148;48.972;12.794;2023-09-08T19:09:21;18.00;99.90
27759;DHT22;15148;48.972;12.794;2023-09-08T19:14:23;17.80;99.90
27759;DHT22;15148;48.972;12.794;2023-09-08T19:19:28;17.70;99.90
27759;DHT22;15148;48.972;12.794;2023-09-08T19:24:30;17.70;99.90
27759;DHT22;15148;48.972;12.794;2023-09-08T19:29:32;17.50;99.90
27759;DHT22;15148;48.972;12.794;2023-09-08T19:34:34;17.40;99.90
27759;DHT22;15148;48.972;12.794;2023-09-08T19:39:36;17.20;99.90
27759;DHT22;15148;48.972;12.794;2023-09-08T19:44:38;17.20;99.90
27759;DHT22;15148;48.972;12.794;2023-09-08T19:49:40;17.10;99.90
27759;DHT22;15148;48.972;12.794;2023-09-08T19:54:44;17.00;99.90
27759;DHT22;15148;48.972;12.794;2023-09-08T19:59:45;17.00;99.90
27759;DHT22;15148;48.972;12.794;2023-09-08T20:04:47;16.90;99.90
27759;DHT22;15148;48.972;12.794;2023-09-08T20:09:49;16.70;99.90
27759;DHT22;15148;48.972;12.794;2023-09-08T20:19:53;16.70;99.90
27759;DHT22;15148;48.972;12.794;2023-09-08T20:24:55;16.60;99.90
27759;DHT22;15148;48.972;12.794;2023-09-08T20:29:57;16.50;99.90
27759;DHT22;15148;48.972;12.794;2023-09-08T20:35:00;16.50;99.90
27759;DHT22;15148;48.972;12.794;2023-09-08T20:40:02;16.50;99.90
27759;DHT22;15148;48.972;12.794;2023-09-08T20:45:05;16.60;99.90
27759;DHT22;15148;48.972;12.794;2023-09-08T20:50:07;16.60;99.90
27759;DHT22;15148;48.972;12.794;2023-09-08T20:55:09;16.40;99.90
27759;DHT22;15148;48.972;12.794;2023-09-08T21:00:12;16.40;99.90
27759;DHT22;15148;48.972;12.794;2023-09-08T21:05:14;16.30;99.90
27759;DHT22;15148;48.972;12.794;2023-09-08T21:10:16;16.40;99.90
27759;DHT22;15148;48.972;12.794;2023-09-08T21:15:17;16.40;99.90
27759;DHT22;15148;48.972;12.794;2023-09-08T21:20:19;16.40;99.90
27759;DHT22;15148;48.972;12.794;2023-09-08T21:25:21;16.30;99.90
27759;DHT22;15148;48.972;12.794;2023-09-08T21:30:24;16.30;99.90
27759;DHT22;15148;48.972;12.794;2023-09-08T21:35:26;16.20;99.90
27759;DHT22;15148;48.972;12.794;2023-09-08T21:40:28;16.10;99.90
27759;DHT22;15148;48.972;12.794;2023-09-08T21:45:30;16.00;99.90
27759;DHT22;15148;48.972;12.794;2023-09-08T21:50:32;16.00;99.90
27759;DHT22;15148;48.972;12.794;2023-09-08T21:55:33;16.00;99.90
27759;DHT22;15148;48.972;12.794;2023-09-08T22:00:35;16.00;99.90
27759;DHT22;15148;48.972;12.794;2023-09-08T22:05:38;16.10;99.90
27759;DHT22;15148;48.972;12.794;2023-09-08T22:10:40;16.30;99.90
27759;DHT22;15148;48.972;12.794;2023-09-08T22:15:41;16.30;99.90
27759;DHT22;15148;48.972;12.794;2023-09-08T22:20:43;16.30;99.90
27759;DHT22;15148;48.972;12.794;2023-09-08T22:25:48;16.20;99.90
27759;DHT22;15148;48.972;12.794;2023-09-08T22:30:50;16.10;99.90
27759;DHT22;15148;48.972;12.794;2023-09-08T22:35:52;15.90;99.90
27759;DHT22;15148;48.972;12.794;2023-09-08T22:40:54;16.00;99.90
27759;DHT22;15148;48.972;12.794;2023-09-08T22:45:56;16.00;99.90
27759;DHT22;15148;48.972;12.794;2023-09-08T22:50:58;15.90;99.90
27759;DHT22;15148;48.972;12.794;2023-09-08T22:56:02;15.90;99.90
27759;DHT22;15148;48.972;12.794;2023-09-08T23:01:04;15.80;99.90
27759;DHT22;15148;48.972;12.794;2023-09-08T23:06:06;15.90;99.90
27759;DHT22;15148;48.972;12.794;2023-09-08T23:11:07;15.80;99.90
27759;DHT22;15148;48.972;12.794;2023-09-08T23:16:13;15.80;99.90
27759;DHT22;15148;48.972;12.794;2023-09-08T23:21:15;15.90;99.90
27759;DHT22;15148;48.972;12.794;2023-09-08T23:26:17;16.00;99.90
27759;DHT22;15148;48.972;12.794;2023-09-08T23:31:20;16.00;99.90
27759;DHT22;15148;48.972;12.794;2023-09-08T23:36:21;16.00;99.90
27759;DHT22;15148;48.972;12.794;2023-09-08T23:41:24;15.90;99.90
27759;DHT22;15148;48.972;12.794;2023-09-08T23:46:27;15.70;99.90
27759;DHT22;15148;48.972;12.794;2023-09-08T23:51:29;15.60;99.90
27759;DHT22;15148;48.972;12.794;2023-09-08T23:56:30;15.60;99.90
